createdAt,value
2018-08-18T00:00:20.168Z,100767.33
2018-08-18T00:02:49.043Z,100770.91
2018-08-18T00:05:18.700Z,100768.50
2018-08-18T00:07:47.718Z,100768.78
2018-08-18T00:10:20.172Z,100766.70
2018-08-18T00:12:49.092Z,100761.59
2018-08-18T00:15:18.043Z,100766.95
2018-08-18T00:17:47.119Z,100764.73
2018-08-18T00:20:18.068Z,100766.89
2018-08-18T00:22:47.276Z,100765.52
2018-08-18T00:25:16.205Z,100765.45
2018-08-18T00:27:45.050Z,100768.72
2018-08-18T00:30:19.176Z,100760.86
2018-08-18T00:32:48.099Z,100761.61
2018-08-18T00:35:17.044Z,100757.25
2018-08-18T00:37:46.488Z,100762.43
2018-08-18T00:40:15.447Z,100763.11
2018-08-18T00:42:44.296Z,100762.30
2018-08-18T00:45:14.101Z,100765.52
2018-08-18T00:47:43.026Z,100760.34
2018-08-18T00:50:13.696Z,100773.70
2018-08-18T00:52:42.756Z,100772.34
2018-08-18T00:55:11.720Z,100761.58
2018-08-18T00:57:40.750Z,100758.08
2018-08-18T01:00:09.655Z,100753.72
2018-08-18T01:02:38.496Z,100759.65
2018-08-18T01:05:07.474Z,100754.46
2018-08-18T01:07:36.428Z,100747.98
2018-08-18T01:10:05.596Z,100752.00
2018-08-18T01:12:35.313Z,100761.41
2018-08-18T01:15:04.228Z,100759.44
2018-08-18T01:17:33.176Z,100755.61
2018-08-18T01:20:02.061Z,100755.77
2018-08-18T01:22:30.969Z,100752.63
2018-08-18T01:24:59.823Z,100750.45
2018-08-18T01:27:29.633Z,100756.32
2018-08-18T01:30:04.491Z,100743.85
2018-08-18T01:32:33.860Z,100749.47
2018-08-18T01:35:02.761Z,100739.73
2018-08-18T01:37:32.991Z,100751.48
2018-08-18T01:40:02.160Z,100754.29
2018-08-18T01:42:32.940Z,100766.54
2018-08-18T01:45:01.904Z,100784.99
2018-08-18T01:47:31.034Z,100779.84
2018-08-18T01:50:04.368Z,100785.87
2018-08-18T01:52:34.054Z,100781.52
2018-08-18T01:55:03.065Z,100799.97
2018-08-18T01:57:31.996Z,100801.50
2018-08-18T02:00:05.539Z,100797.44
2018-08-18T02:02:34.537Z,100795.95
2018-08-18T02:05:12.299Z,100797.95
2018-08-18T02:07:41.551Z,100804.16
2018-08-18T02:10:10.457Z,100803.77
2018-08-18T02:12:40.923Z,100804.27
2018-08-18T02:15:09.760Z,100795.91
2018-08-18T02:17:38.966Z,100802.13
2018-08-18T02:20:09.581Z,100804.96
2018-08-18T02:22:38.440Z,100803.96
2018-08-18T02:25:07.423Z,100802.25
2018-08-18T02:27:36.518Z,100805.15
2018-08-18T02:30:17.525Z,100801.19
2018-08-18T02:32:46.379Z,100802.59
2018-08-18T02:35:15.356Z,100794.62
2018-08-18T02:37:45.618Z,100804.69
2018-08-18T02:40:16.259Z,100794.50
2018-08-18T02:42:45.184Z,100799.08
2018-08-18T02:45:14.965Z,100805.14
2018-08-18T02:47:43.844Z,100801.84
2018-08-18T02:50:13.838Z,100803.92
2018-08-18T02:52:42.798Z,100803.51
2018-08-18T02:55:12.432Z,100805.27
2018-08-18T02:57:42.601Z,100801.59
2018-08-18T03:00:14.063Z,100797.52
2018-08-18T03:02:42.936Z,100793.22
2018-08-18T03:05:11.851Z,100794.89
2018-08-18T03:07:45.466Z,100800.72
2018-08-18T03:10:19.432Z,100801.58
2018-08-18T03:12:48.307Z,100798.12
2018-08-18T03:16:19.855Z,100802.80
2018-08-18T03:18:50.079Z,100809.74
2018-08-18T03:21:20.340Z,100819.03
2018-08-18T03:24:00.159Z,100815.72
2018-08-18T03:26:48.904Z,100815.53
2018-08-18T03:29:18.426Z,100816.00
2018-08-18T03:31:47.656Z,100807.19
2018-08-18T03:34:16.751Z,100816.94
2018-08-18T03:36:48.128Z,100810.61
2018-08-18T03:39:29.672Z,100818.30
2018-08-18T03:41:59.864Z,100814.39
2018-08-18T03:44:28.805Z,100817.82
2018-08-18T03:46:57.647Z,100825.91
2018-08-18T03:49:27.088Z,100825.92
2018-08-18T03:51:56.564Z,100825.96
2018-08-18T03:54:25.574Z,100832.30
2018-08-18T03:56:54.608Z,100829.02
2018-08-18T03:59:23.516Z,100837.48
2018-08-18T04:01:53.735Z,100834.77
2018-08-18T04:04:23.722Z,100829.65
2018-08-18T04:06:53.823Z,100834.23
2018-08-18T04:09:24.752Z,100831.77
2018-08-18T04:11:53.817Z,100835.17
2018-08-18T04:14:30.812Z,100833.61
2018-08-18T04:16:59.753Z,100836.63
2018-08-18T04:19:28.760Z,100832.28
2018-08-18T04:21:57.796Z,100834.69
2018-08-18T04:24:32.304Z,100841.05
2018-08-18T04:27:01.767Z,100844.03
2018-08-18T04:29:31.965Z,100842.35
2018-08-18T04:32:01.600Z,100840.41
2018-08-18T04:34:30.646Z,100839.26
2018-08-18T04:37:00.570Z,100845.46
2018-08-18T04:39:29.668Z,100851.55
2018-08-18T04:41:58.575Z,100850.11
2018-08-18T04:44:27.480Z,100843.80
2018-08-18T04:46:56.419Z,100848.20
2018-08-18T04:49:25.272Z,100850.73
2018-08-18T04:51:54.160Z,100857.30
2018-08-18T04:54:23.120Z,100863.83
2018-08-18T04:56:52.228Z,100858.64
2018-08-18T04:59:22.562Z,100847.23
2018-08-18T05:01:51.392Z,100856.08
2018-08-18T05:04:20.228Z,100852.51
2018-08-18T05:06:49.129Z,100861.71
2018-08-18T05:09:18.040Z,100859.05
2018-08-18T05:11:47.043Z,100868.08
2018-08-18T05:14:15.835Z,100871.00
2018-08-18T05:16:44.746Z,100871.00
2018-08-18T05:19:13.677Z,100881.88
2018-08-18T05:21:42.649Z,100876.53
2018-08-18T05:24:23.323Z,100875.77
2018-08-18T05:26:53.295Z,100878.95
2018-08-18T05:29:22.374Z,100888.13
2018-08-18T05:31:51.356Z,100883.02
2018-08-18T05:34:20.208Z,100882.16
2018-08-18T05:36:49.063Z,100884.54
2018-08-18T05:39:18.069Z,100885.74
2018-08-18T05:41:46.973Z,100889.47
2018-08-18T05:44:15.815Z,100886.91
2018-08-18T05:46:44.736Z,100897.94
2018-08-18T05:49:16.393Z,100891.36
2018-08-18T05:51:47.538Z,100890.61
2018-08-18T05:54:18.640Z,100891.54
2018-08-18T05:56:47.511Z,100883.39
2018-08-18T05:59:16.495Z,100886.60
2018-08-18T06:01:45.558Z,100886.80
2018-08-18T06:04:15.778Z,100892.95
2018-08-18T06:06:45.653Z,100881.70
2018-08-18T06:09:15.650Z,100887.03
2018-08-18T06:11:44.703Z,100888.35
2018-08-18T06:14:14.078Z,100893.75
2018-08-18T06:16:43.456Z,100893.31
2018-08-18T06:19:12.316Z,100891.45
2018-08-18T06:21:41.240Z,100887.59
2018-08-18T06:24:11.036Z,100882.61
2018-08-18T06:26:40.023Z,100887.77
2018-08-18T06:29:08.884Z,100884.91
2018-08-18T06:32:14.369Z,100888.52
2018-08-18T06:34:44.357Z,100892.50
2018-08-18T06:37:13.281Z,100888.48
2018-08-18T06:39:53.688Z,100890.13
2018-08-18T06:42:36.564Z,100893.46
2018-08-18T06:45:12.773Z,100910.62
2018-08-18T06:47:42.185Z,100903.37
2018-08-18T06:50:13.171Z,100901.23
2018-08-18T06:52:42.375Z,100907.83
2018-08-18T06:55:17.013Z,100893.22
2018-08-18T06:57:48.543Z,100904.78
2018-08-18T07:00:19.908Z,100899.50
2018-08-18T07:02:48.856Z,100895.17
2018-08-18T07:05:18.832Z,100902.94
2018-08-18T07:07:48.421Z,100905.33
2018-08-18T07:10:29.564Z,100912.95
2018-08-18T07:13:02.732Z,100907.61
2018-08-18T07:15:34.605Z,100904.96
2018-08-18T07:18:03.604Z,100906.67
2018-08-18T07:20:32.575Z,100906.14
2018-08-18T07:23:01.582Z,100916.34
2018-08-18T07:25:30.473Z,100907.47
2018-08-18T07:28:04.350Z,100918.97
2018-08-18T07:30:33.391Z,100931.42
2018-08-18T07:33:02.575Z,100917.75
2018-08-18T07:35:31.488Z,100926.18
2018-08-18T07:38:00.461Z,100910.88
2018-08-18T07:40:38.723Z,100906.20
2018-08-18T07:43:08.503Z,100912.33
2018-08-18T07:45:37.821Z,100905.65
2018-08-18T07:48:07.719Z,100913.91
2018-08-18T07:50:36.727Z,100909.48
2018-08-18T07:53:05.611Z,100905.35
2018-08-18T07:55:34.540Z,100900.73
2018-08-18T07:58:05.055Z,100912.46
2018-08-18T08:00:35.071Z,100912.09
2018-08-18T08:03:04.205Z,100906.72
2018-08-18T08:05:33.288Z,100898.02
2018-08-18T08:08:02.164Z,100906.84
2018-08-18T08:10:31.168Z,100906.59
2018-08-18T08:13:00.179Z,100909.38
2018-08-18T08:15:29.379Z,100907.27
2018-08-18T08:17:58.281Z,100929.15
2018-08-18T08:20:27.084Z,100904.42
2018-08-18T08:22:56.497Z,100900.56
2018-08-18T08:25:25.396Z,100906.69
2018-08-18T08:27:54.961Z,100898.09
2018-08-18T08:30:25.103Z,100911.22
2018-08-18T08:32:53.956Z,100906.38
2018-08-18T08:35:22.876Z,100896.44
2018-08-18T08:37:52.859Z,100893.16
2018-08-18T08:40:22.708Z,100885.72
2018-08-18T08:42:51.680Z,100889.99
2018-08-18T08:45:21.752Z,100890.92
2018-08-18T08:47:50.567Z,100894.95
2018-08-18T08:50:21.370Z,100878.11
2018-08-18T08:52:55.339Z,100866.27
2018-08-18T08:55:25.358Z,100874.41
2018-08-18T08:57:54.272Z,100882.36
2018-08-18T09:00:23.214Z,100874.48
2018-08-18T09:02:52.135Z,100875.67
2018-08-18T09:05:21.229Z,100873.10
2018-08-18T09:07:50.187Z,100868.84
2018-08-18T09:10:19.183Z,100873.50
2018-08-18T09:12:48.851Z,100869.48
2018-08-18T09:15:18.382Z,100879.12
2018-08-18T09:17:47.235Z,100879.84
2018-08-18T09:20:19.208Z,100879.58
2018-08-18T09:22:58.252Z,100880.12
2018-08-18T09:25:28.141Z,100884.82
2018-08-18T09:27:58.050Z,100879.45
2018-08-18T09:30:28.221Z,100873.05
2018-08-18T09:33:02.198Z,100886.86
2018-08-18T09:35:33.399Z,100880.02
2018-08-18T09:38:02.427Z,100873.63
2018-08-18T09:40:32.483Z,100889.61
2018-08-18T09:43:04.660Z,100890.23
2018-08-18T09:45:33.520Z,100886.33
2018-08-18T09:48:02.476Z,100888.88
2018-08-18T09:50:31.345Z,100890.50
2018-08-18T09:53:00.204Z,100895.70
2018-08-18T09:55:29.161Z,100887.26
2018-08-18T09:57:58.015Z,100895.81
2018-08-18T10:00:32.064Z,100888.43
2018-08-18T10:03:00.987Z,100903.23
2018-08-18T10:05:30.097Z,100886.34
2018-08-18T10:07:59.116Z,100891.16
2018-08-18T10:10:28.096Z,100895.27
2018-08-18T10:12:56.996Z,100894.38
2018-08-18T10:15:26.024Z,100900.73
2018-08-18T10:17:54.948Z,100899.56
2018-08-18T10:20:23.964Z,100901.81
2018-08-18T10:22:52.795Z,100906.33
2018-08-18T10:25:21.735Z,100904.00
2018-08-18T10:27:50.704Z,100904.07
2018-08-18T10:30:19.699Z,100902.15
2018-08-18T10:32:55.081Z,100907.16
2018-08-18T10:35:30.383Z,100912.23
2018-08-18T10:38:00.483Z,100915.47
2018-08-18T10:40:29.372Z,100910.64
2018-08-18T10:42:58.443Z,100914.84
2018-08-18T10:45:27.365Z,100915.19
2018-08-18T10:47:56.276Z,100923.25
2018-08-18T10:51:38.717Z,100917.70
2018-08-18T10:54:07.854Z,100918.24
2018-08-18T10:56:36.736Z,100915.66
2018-08-18T10:59:14.888Z,100919.34
2018-08-18T11:02:26.401Z,100914.75
2018-08-18T11:04:55.268Z,100910.03
2018-08-18T11:07:24.134Z,100911.56
2018-08-18T11:09:53.099Z,100912.23
2018-08-18T11:12:21.984Z,100918.52
2018-08-18T11:14:55.940Z,100922.41
2018-08-18T11:17:25.236Z,100920.49
2018-08-18T11:19:55.577Z,100919.95
2018-08-18T11:22:47.998Z,100916.53
2018-08-18T11:25:16.829Z,100923.24
2018-08-18T11:27:45.651Z,100926.50
2018-08-18T11:30:14.570Z,100918.52
2018-08-18T11:32:43.543Z,100918.01
2018-08-18T11:35:12.524Z,100916.33
2018-08-18T11:37:52.991Z,100922.38
2018-08-18T11:40:22.891Z,100914.48
2018-08-18T11:42:51.983Z,100912.38
2018-08-18T11:45:22.140Z,100912.70
2018-08-18T11:48:05.112Z,100910.31
2018-08-18T11:50:34.204Z,100908.53
2018-08-18T11:53:03.867Z,100910.94
2018-08-18T11:55:32.812Z,100904.87
2018-08-18T11:58:04.540Z,100903.93
2018-08-18T12:00:37.563Z,100904.20
2018-08-18T12:03:09.968Z,100903.03
2018-08-18T12:05:44.879Z,100898.83
2018-08-18T12:08:14.408Z,100895.07
2018-08-18T12:10:43.578Z,100896.95
2018-08-18T12:13:12.507Z,100901.14
2018-08-18T12:15:56.003Z,100896.46
2018-08-18T12:18:27.584Z,100899.33
2018-08-18T12:20:58.795Z,100896.17
2018-08-18T12:23:27.873Z,100894.04
2018-08-18T12:26:01.729Z,100897.12
2018-08-18T12:28:35.467Z,100894.44
2018-08-18T12:31:06.389Z,100894.16
2018-08-18T12:33:35.269Z,100897.34
2018-08-18T12:36:04.163Z,100898.43
2018-08-18T12:38:33.353Z,100889.71
2018-08-18T12:41:03.008Z,100888.47
2018-08-18T12:43:35.286Z,100884.78
2018-08-18T12:46:04.977Z,100885.47
2018-08-18T12:48:36.352Z,100890.09
2018-08-18T12:51:05.779Z,100885.48
2018-08-18T12:53:39.748Z,100890.08
2018-08-18T12:56:08.964Z,100882.08
2018-08-18T12:58:37.936Z,100885.96
2018-08-18T13:01:06.888Z,100882.81
2018-08-18T13:03:35.821Z,100880.30
2018-08-18T13:06:04.869Z,100879.70
2018-08-18T13:08:33.823Z,100881.68
2018-08-18T13:11:02.693Z,100884.27
2018-08-18T13:13:31.931Z,100880.08
2018-08-18T13:16:01.162Z,100882.38
2018-08-18T13:18:30.239Z,100880.09
2018-08-18T13:20:59.164Z,100880.33
2018-08-18T13:23:28.136Z,100882.14
2018-08-18T13:25:57.032Z,100875.16
2018-08-18T13:28:25.929Z,100880.63
2018-08-18T13:30:54.852Z,100879.52
2018-08-18T13:33:23.651Z,100882.58
2018-08-18T13:35:52.611Z,100884.23
2018-08-18T13:38:30.044Z,100878.66
2018-08-18T13:40:59.025Z,100891.83
2018-08-18T13:43:43.980Z,100887.13
2018-08-18T13:46:14.382Z,100891.03
2018-08-18T13:48:51.415Z,100894.67
2018-08-18T13:51:21.012Z,100891.95
2018-08-18T13:53:54.951Z,100885.70
2018-08-18T13:56:29.024Z,100885.55
2018-08-18T13:58:58.076Z,100879.22
2018-08-18T14:01:31.417Z,100883.45
2018-08-18T14:04:00.310Z,100884.83
2018-08-18T14:06:29.336Z,100887.98
2018-08-18T14:09:02.337Z,100880.11
2018-08-18T14:11:31.773Z,100888.81
2018-08-18T14:14:01.839Z,100890.11
2018-08-18T14:16:31.522Z,100890.52
2018-08-18T14:19:00.896Z,100881.42
2018-08-18T14:21:29.978Z,100876.64
2018-08-18T14:23:58.872Z,100877.92
2018-08-18T14:26:27.744Z,100872.67
2018-08-18T14:28:56.588Z,100888.25
2018-08-18T14:31:25.448Z,100881.51
2018-08-18T14:33:54.396Z,100878.83
2018-08-18T14:36:24.360Z,100884.45
2018-08-18T14:38:53.955Z,100877.08
2018-08-18T14:41:43.141Z,100877.93
2018-08-18T14:44:12.101Z,100878.35
2018-08-18T14:46:41.194Z,100873.17
2018-08-18T14:49:10.033Z,100868.82
2018-08-18T14:51:38.948Z,100878.68
2018-08-18T14:54:08.686Z,100875.20
2018-08-18T14:56:37.535Z,100879.54
2018-08-18T14:59:06.373Z,100885.57
2018-08-18T15:01:35.343Z,100888.77
2018-08-18T15:04:04.148Z,100890.38
2018-08-18T15:06:33.116Z,100892.89
2018-08-18T15:09:02.129Z,100893.95
2018-08-18T15:11:30.986Z,100898.36
2018-08-18T15:13:59.873Z,100893.94
2018-08-18T15:16:28.710Z,100886.14
2018-08-18T15:18:57.637Z,100895.31
2018-08-18T15:21:26.573Z,100888.81
2018-08-18T15:23:55.484Z,100890.89
2018-08-18T15:26:24.420Z,100886.50
2018-08-18T15:28:53.472Z,100886.94
2018-08-18T15:31:22.517Z,100884.48
2018-08-18T15:33:51.372Z,100888.28
2018-08-18T15:36:32.275Z,100892.27
2018-08-18T15:39:01.235Z,100891.25
2018-08-18T15:41:30.053Z,100894.08
2018-08-18T15:43:58.993Z,100891.02
2018-08-18T15:46:27.920Z,100894.73
2018-08-18T15:48:57.047Z,100894.13
2018-08-18T15:51:25.883Z,100903.48
2018-08-18T15:53:55.928Z,100906.55
2018-08-18T15:56:25.945Z,100894.91
2018-08-18T15:58:55.667Z,100902.95
2018-08-18T16:01:28.000Z,100893.98
2018-08-18T16:03:57.944Z,100900.25
2018-08-18T16:06:26.860Z,100901.63
2018-08-18T16:08:56.016Z,100902.34
2018-08-18T16:11:24.985Z,100904.07
2018-08-18T16:13:54.085Z,100910.48
2018-08-18T16:16:23.087Z,100906.86
2018-08-18T16:19:00.994Z,100916.38
2018-08-18T16:21:31.824Z,100922.75
2018-08-18T16:24:01.024Z,100928.69
2018-08-18T16:26:29.935Z,100933.13
2018-08-18T16:28:58.860Z,100935.66
2018-08-18T16:31:27.943Z,100936.17
2018-08-18T16:33:56.778Z,100937.14
2018-08-18T16:36:31.953Z,100937.97
2018-08-18T16:39:01.093Z,100936.61
2018-08-18T16:41:30.028Z,100943.48
2018-08-18T16:43:58.975Z,100942.55
2018-08-18T16:46:29.465Z,100944.83
2018-08-18T16:48:58.411Z,100950.68
2018-08-18T16:51:27.450Z,100944.31
2018-08-18T16:53:59.123Z,100949.63
2018-08-18T16:56:30.262Z,100955.43
2018-08-18T16:59:00.403Z,100953.30
2018-08-18T17:01:29.309Z,100951.27
2018-08-18T17:03:58.170Z,100951.26
2018-08-18T17:06:27.108Z,100957.19
2018-08-18T17:08:55.916Z,100960.14
2018-08-18T17:11:24.792Z,100961.22
2018-08-18T17:13:53.674Z,100963.86
2018-08-18T17:16:22.818Z,100973.70
2018-08-18T17:18:51.708Z,100972.87
2018-08-18T17:21:20.690Z,100966.92
2018-08-18T17:23:49.643Z,100974.56
2018-08-18T17:26:18.595Z,100980.64
2018-08-18T17:28:47.504Z,100983.79
2018-08-18T17:31:16.448Z,100980.60
2018-08-18T17:33:45.469Z,100981.63
2018-08-18T17:36:14.386Z,100984.55
2018-08-18T17:38:43.336Z,100983.35
2018-08-18T17:41:12.292Z,100985.91
2018-08-18T17:43:41.141Z,100987.74
2018-08-18T17:46:10.028Z,100994.00
2018-08-18T17:48:44.263Z,101001.19
2018-08-18T17:51:13.172Z,100999.98
2018-08-18T17:53:49.184Z,101007.94
2018-08-18T17:56:18.067Z,101011.22
2018-08-18T17:58:47.181Z,101022.70
2018-08-18T18:01:16.016Z,101019.16
2018-08-18T18:03:45.007Z,101025.09
2018-08-18T18:06:13.901Z,101026.41
2018-08-18T18:08:42.860Z,101025.72
2018-08-18T18:11:11.784Z,101030.30
2018-08-18T18:13:40.688Z,101035.77
2018-08-18T18:16:28.285Z,101038.91
2018-08-18T18:19:00.177Z,101040.53
2018-08-18T18:21:29.189Z,101039.38
2018-08-18T18:23:58.204Z,101045.25
2018-08-18T18:26:27.169Z,101041.50
2018-08-18T18:28:56.107Z,101041.03
2018-08-18T18:31:24.921Z,101048.65
2018-08-18T18:34:08.172Z,101052.55
2018-08-18T18:36:37.009Z,101044.57
2018-08-18T18:39:06.374Z,101054.19
2018-08-18T18:41:35.244Z,101052.22
2018-08-18T18:44:04.644Z,101054.98
2018-08-18T18:46:33.662Z,101057.25
2018-08-18T18:49:03.217Z,101055.48
2018-08-18T18:51:32.124Z,101053.69
2018-08-18T18:54:01.096Z,101060.91
2018-08-18T18:56:30.034Z,101067.88
2018-08-18T18:58:58.961Z,101060.61
2018-08-18T19:01:27.871Z,101060.66
2018-08-18T19:03:56.897Z,101067.58
2018-08-18T19:06:25.860Z,101063.61
2018-08-18T19:09:00.315Z,101061.44
2018-08-18T19:11:29.288Z,101064.13
2018-08-18T19:13:58.610Z,101063.78
2018-08-18T19:16:27.585Z,101067.97
2018-08-18T19:18:56.449Z,101069.72
2018-08-18T19:21:30.654Z,101072.95
2018-08-18T19:23:59.620Z,101065.95
2018-08-18T19:26:37.243Z,101069.95
2018-08-18T19:29:06.084Z,101072.07
2018-08-18T19:31:35.893Z,101064.92
2018-08-18T19:34:11.764Z,101071.95
2018-08-18T19:36:53.620Z,101071.02
2018-08-18T19:39:23.731Z,101068.47
2018-08-18T19:41:52.784Z,101067.89
2018-08-18T19:44:21.637Z,101075.47
2018-08-18T19:46:50.527Z,101079.30
2018-08-18T19:49:30.261Z,101076.48
2018-08-18T19:52:03.693Z,101075.38
2018-08-18T19:54:32.621Z,101076.70
2018-08-18T19:57:01.601Z,101075.51
2018-08-18T19:59:30.484Z,101072.25
2018-08-18T20:01:59.674Z,101071.77
2018-08-18T20:04:28.779Z,101076.27
2018-08-18T20:06:57.950Z,101078.18
2018-08-18T20:09:27.094Z,101075.71
2018-08-18T20:11:56.043Z,101080.75
2018-08-18T20:14:25.008Z,101071.98
2018-08-18T20:16:53.947Z,101075.89
2018-08-18T20:19:22.887Z,101070.06
2018-08-18T20:21:51.711Z,101075.77
2018-08-18T20:24:20.620Z,101074.40
2018-08-18T20:26:49.577Z,101077.48
2018-08-18T20:29:18.411Z,101081.42
2018-08-18T20:32:00.013Z,101082.55
2018-08-18T20:34:29.287Z,101087.57
2018-08-18T20:36:58.115Z,101089.01
2018-08-18T20:39:29.971Z,101086.89
2018-08-18T20:41:59.095Z,101088.96
2018-08-18T20:44:29.272Z,101088.16
2018-08-18T20:46:58.536Z,101084.37
2018-08-18T20:49:27.898Z,101090.70
2018-08-18T20:51:56.848Z,101092.31
2018-08-18T20:54:25.769Z,101091.12
2018-08-18T20:56:54.598Z,101088.55
2018-08-18T20:59:23.562Z,101088.04
2018-08-18T21:01:52.593Z,101084.39
2018-08-18T21:04:21.411Z,101089.33
2018-08-18T21:06:50.283Z,101089.07
2018-08-18T21:09:26.771Z,101095.44
2018-08-18T21:11:55.706Z,101099.72
2018-08-18T21:14:27.221Z,101108.91
2018-08-18T21:16:56.258Z,101099.72
2018-08-18T21:19:26.032Z,101105.87
2018-08-18T21:21:55.881Z,101106.09
2018-08-18T21:24:24.771Z,101110.61
2018-08-18T21:26:53.745Z,101101.67
2018-08-18T21:29:24.448Z,101103.51
2018-08-18T21:31:53.287Z,101114.76
2018-08-18T21:34:22.261Z,101117.16
2018-08-18T21:36:51.139Z,101115.12
2018-08-18T21:39:20.039Z,101118.45
2018-08-18T21:41:49.291Z,101117.73
2018-08-18T21:44:18.215Z,101122.14
2018-08-18T21:46:47.164Z,101120.05
2018-08-18T21:49:15.967Z,101122.61
2018-08-18T21:51:44.920Z,101120.55
2018-08-18T21:54:13.731Z,101118.95
2018-08-18T21:56:43.431Z,101130.75
2018-08-18T21:59:13.664Z,101129.51
2018-08-18T22:01:42.695Z,101136.62
2018-08-18T22:04:11.612Z,101142.95
2018-08-18T22:06:40.559Z,101147.28
2018-08-18T22:09:23.060Z,101139.98
2018-08-18T22:11:52.055Z,101137.33
2018-08-18T22:14:20.971Z,101137.69
2018-08-18T22:16:55.167Z,101141.91
2018-08-18T22:19:24.147Z,101133.66
2018-08-18T22:21:53.172Z,101136.89
2018-08-18T22:24:22.003Z,101139.67
2018-08-18T22:26:50.917Z,101136.33
2018-08-18T22:29:23.803Z,101140.17
2018-08-18T22:31:53.037Z,101138.93
2018-08-18T22:34:21.882Z,101140.21
2018-08-18T22:36:50.925Z,101137.76
2018-08-18T22:39:19.824Z,101140.77
2018-08-18T22:41:48.712Z,101133.41
2018-08-18T22:44:17.611Z,101134.94
2018-08-18T22:46:46.684Z,101144.64
2018-08-18T22:49:15.700Z,101134.38
2018-08-18T22:51:44.545Z,101131.80
2018-08-18T22:54:13.368Z,101131.70
2018-08-18T22:56:42.591Z,101137.85
2018-08-18T22:59:11.801Z,101127.08
2018-08-18T23:01:40.743Z,101129.35
2018-08-18T23:04:27.872Z,101118.47
2018-08-18T23:06:57.280Z,101129.69
2018-08-18T23:09:26.331Z,101132.59
2018-08-18T23:11:56.971Z,101124.56
2018-08-18T23:14:25.971Z,101128.71
2018-08-18T23:16:54.965Z,101122.48
2018-08-18T23:19:23.785Z,101129.32
2018-08-18T23:21:52.672Z,101131.03
2018-08-18T23:24:31.953Z,101123.47
2018-08-18T23:27:01.180Z,101124.69
2018-08-18T23:29:30.170Z,101126.90
2018-08-18T23:31:59.668Z,101135.56
2018-08-18T23:34:28.612Z,101125.91
2018-08-18T23:36:57.664Z,101135.34
2018-08-18T23:39:26.510Z,101145.19
2018-08-18T23:42:19.144Z,101144.49
2018-08-18T23:44:48.576Z,101148.87
2018-08-18T23:47:17.701Z,101140.56
2018-08-18T23:49:46.768Z,101152.53
2018-08-18T23:52:15.649Z,101145.47
2018-08-18T23:54:44.592Z,101147.75
2018-08-18T23:57:15.019Z,101142.34
2018-08-18T23:59:44.227Z,101141.45
